Kamikawa Maru — JG5687 — position and weather

sailwx.info

Track history (hours):
 
Tides and Currents Weather Stations Pressure Air Temp Water Temp Dewpoint Dewpoint Depression Visibility Wind Speed Wind Dir Waves Ship Positions

Kamikawa Maru

Last reported at 2014-Aug-25 20:33 UTC. Time now 2014-Sep-03 04:47 UTC.
Position N 34°36' E 134°55'.
Warning: this ship's position is 8 days out of date.

Length 162 m; draft 6.8 m.

Type: Cargo ship. MMSI: 431101012.

Date/timePositionNaut miles runAvg speedWind from/ knotsBaromVisibWave heightAir tempDewpointWater temp
2014-Aug-25 20:33N 34°36' E 134°55'1010.4
2014-Aug-25 19:33N 34°33' E 135°07'1413.5
2014-Aug-25 18:33N 34°21' E 135°01'1313.6
2014-Aug-25 17:34N 34°07' E 135°00'177 5.5
2014-Aug-24 09:32N 34°30' E 138°32'3818.1
2014-Aug-24 07:27N 34°46' E 139°14'1617.6
2014-Aug-24 06:33N 34°57' E 139°28'1918.8
2014-Aug-24 05:33N 35°10' E 139°45'1312.6
2014-Aug-24 04:33N 35°22' E 139°42'1414.2
2014-Aug-24 03:33N 35°36' E 139°47'2 2.0
2014-Aug-24 02:31N 35°38' E 139°46'0 0.0
2014-Aug-24 01:31N 35°38' E 139°46'0 0.0
2014-Aug-24 00:31N 35°38' E 139°46'0 0.0
2014-Aug-23 23:33N 35°38' E 139°46'1110.9
2014-Aug-23 22:33N 35°28' E 139°50'1212.1
2014-Aug-23 21:33N 35°16' E 139°46'1212.3
2014-Aug-23 20:33N 35°04' E 139°45'1513.1
2014-Aug-23 19:27N 34°53' E 139°56'  
2014-Aug-19 19:33N 36°35' E 141°04'1918.8
2014-Aug-19 18:32N 36°16' E 141°02'3718.9
2014-Aug-19 16:33N 35°39' E 140°54'1919.3
2014-Aug-19 15:34N 35°22' E 140°42'2219.6
2014-Aug-19 14:27N 35°06' E 140°24'1920.9
2014-Aug-19 13:33N 34°56' E 140°05'1717.3
2014-Aug-19 12:33N 34°57' E 139°44'1817.7
2014-Aug-19 11:33N 35°14' E 139°46'1312.7
2014-Aug-19 10:33N 35°27' E 139°47'1111.2
2014-Aug-19 09:33N 35°38' E 139°46'0 0.1
2014-Aug-19 08:29N 35°38' E 139°46'0 0.1
2014-Aug-19 07:33N 35°38' E 139°46'0 0.0
2014-Aug-19 06:30N 35°38' E 139°46'0 0.0
2014-Aug-19 05:20N 35°38' E 139°46'0 0.1
2014-Aug-19 04:30N 35°38' E 139°46'0 0.0
2014-Aug-19 03:33N 35°38' E 139°46'0 0.0
2014-Aug-19 02:20N 35°38' E 139°46'0 0.0
2014-Aug-19 01:27N 35°38' E 139°46'0 0.1
2014-Aug-19 00:30N 35°38' E 139°46'0 0.1
2014-Aug-18 23:34N 35°38' E 139°46'1010.2
2014-Aug-18 22:33N 35°29' E 139°52'1312.6
2014-Aug-18 21:33N 35°18' E 139°45'1313.3
2014-Aug-18 20:33N 35°05' E 139°44'1817.9
2014-Aug-18 19:33N 34°54' E 139°27'1918.4
2014-Aug-18 18:32N 34°40' E 139°12'3417.3
2014-Aug-18 16:33N 34°28' E 138°32'3 0.1
2014-Aug-17 09:25N 34°31' E 138°31'1719.8
2014-Aug-17 08:33N 34°33' E 138°52'1818.6
2014-Aug-17 07:33N 34°43' E 139°10'1818.5
2014-Aug-17 06:33N 34°56' E 139°26'1918.9
2014-Aug-17 05:33N 35°08' E 139°44'1313.1
2014-Aug-17 04:33N 35°21' E 139°42'1515.0
2014-Aug-17 03:33N 35°36' E 139°47'3 2.3
2014-Aug-17 02:22N 35°38' E 139°46'0 0.1
2014-Aug-17 01:31N 35°38' E 139°46'0 0.0
2014-Aug-17 00:28N 35°38' E 139°46'0 0.1
2014-Aug-16 23:31N 35°38' E 139°46'0 0.2
2014-Aug-16 22:33N 35°38' E 139°46'1010.0
2014-Aug-16 21:33N 35°29' E 139°52'1211.9
2014-Aug-16 20:34N 35°19' E 139°44'1111.3
2014-Aug-16 19:33N 35°08' E 139°46'1616.1
2014-Aug-16 18:32N 34°52' E 139°45'1616.8
2014-Aug-16 17:33N 34°54' E 140°05'2017.8
2014-Aug-16 16:26N 35°04' E 140°26'2015.7
2014-Aug-16 15:09N 35°20' E 140°41'1117.0
2014-Aug-16 14:32N 35°29' E 140°47'1918.0
2014-Aug-16 13:29N 35°46' E 140°58'1819.2
2014-Aug-16 12:33N 36°04' E 141°00'  
Track history (hours):
 
Tides and Currents Weather Stations Pressure Air Temp Water Temp Dewpoint Dewpoint Depression Visibility Wind Speed Wind Dir Waves Ship Positions

Kamikawa Maru

Last reported at 2014-Aug-25 20:33 UTC. Time now 2014-Sep-03 04:47 UTC.
Position N 34°36' E 134°55'.
Warning: this ship's position is 8 days out of date.

Length 162 m; draft 6.8 m.

Type: Cargo ship. MMSI: 431101012.

Date/timePositionNaut miles runAvg speedWind from/ knotsBaromVisibWave heightAir tempDewpointWater temp
2014-Aug-25 20:33N 34°36' E 134°55'1010.4
2014-Aug-25 19:33N 34°33' E 135°07'1413.5
2014-Aug-25 18:33N 34°21' E 135°01'1313.6
2014-Aug-25 17:34N 34°07' E 135°00'177 5.5
2014-Aug-24 09:32N 34°30' E 138°32'3818.1
2014-Aug-24 07:27N 34°46' E 139°14'1617.6
2014-Aug-24 06:33N 34°57' E 139°28'1918.8
2014-Aug-24 05:33N 35°10' E 139°45'1312.6
2014-Aug-24 04:33N 35°22' E 139°42'1414.2
2014-Aug-24 03:33N 35°36' E 139°47'2 2.0
2014-Aug-24 02:31N 35°38' E 139°46'0 0.0
2014-Aug-24 01:31N 35°38' E 139°46'0 0.0
2014-Aug-24 00:31N 35°38' E 139°46'0 0.0
2014-Aug-23 23:33N 35°38' E 139°46'1110.9
2014-Aug-23 22:33N 35°28' E 139°50'1212.1
2014-Aug-23 21:33N 35°16' E 139°46'1212.3
2014-Aug-23 20:33N 35°04' E 139°45'1513.1
2014-Aug-23 19:27N 34°53' E 139°56'  
2014-Aug-19 19:33N 36°35' E 141°04'1918.8
2014-Aug-19 18:32N 36°16' E 141°02'3718.9
2014-Aug-19 16:33N 35°39' E 140°54'1919.3
2014-Aug-19 15:34N 35°22' E 140°42'2219.6
2014-Aug-19 14:27N 35°06' E 140°24'1920.9
2014-Aug-19 13:33N 34°56' E 140°05'1717.3
2014-Aug-19 12:33N 34°57' E 139°44'1817.7
2014-Aug-19 11:33N 35°14' E 139°46'1312.7
2014-Aug-19 10:33N 35°27' E 139°47'1111.2
2014-Aug-19 09:33N 35°38' E 139°46'0 0.1
2014-Aug-19 08:29N 35°38' E 139°46'0 0.1
2014-Aug-19 07:33N 35°38' E 139°46'0 0.0
2014-Aug-19 06:30N 35°38' E 139°46'0 0.0
2014-Aug-19 05:20N 35°38' E 139°46'0 0.1
2014-Aug-19 04:30N 35°38' E 139°46'0 0.0
2014-Aug-19 03:33N 35°38' E 139°46'0 0.0
2014-Aug-19 02:20N 35°38' E 139°46'0 0.0
2014-Aug-19 01:27N 35°38' E 139°46'0 0.1
2014-Aug-19 00:30N 35°38' E 139°46'0 0.1
2014-Aug-18 23:34N 35°38' E 139°46'1010.2
2014-Aug-18 22:33N 35°29' E 139°52'1312.6
2014-Aug-18 21:33N 35°18' E 139°45'1313.3
2014-Aug-18 20:33N 35°05' E 139°44'1817.9
2014-Aug-18 19:33N 34°54' E 139°27'1918.4
2014-Aug-18 18:32N 34°40' E 139°12'3417.3
2014-Aug-18 16:33N 34°28' E 138°32'3 0.1
2014-Aug-17 09:25N 34°31' E 138°31'1719.8
2014-Aug-17 08:33N 34°33' E 138°52'1818.6
2014-Aug-17 07:33N 34°43' E 139°10'1818.5
2014-Aug-17 06:33N 34°56' E 139°26'1918.9
2014-Aug-17 05:33N 35°08' E 139°44'1313.1
2014-Aug-17 04:33N 35°21' E 139°42'1515.0
2014-Aug-17 03:33N 35°36' E 139°47'3 2.3
2014-Aug-17 02:22N 35°38' E 139°46'0 0.1
2014-Aug-17 01:31N 35°38' E 139°46'0 0.0
2014-Aug-17 00:28N 35°38' E 139°46'0 0.1
2014-Aug-16 23:31N 35°38' E 139°46'0 0.2
2014-Aug-16 22:33N 35°38' E 139°46'1010.0
2014-Aug-16 21:33N 35°29' E 139°52'1211.9
2014-Aug-16 20:34N 35°19' E 139°44'1111.3
2014-Aug-16 19:33N 35°08' E 139°46'1616.1
2014-Aug-16 18:32N 34°52' E 139°45'1616.8
2014-Aug-16 17:33N 34°54' E 140°05'2017.8
2014-Aug-16 16:26N 35°04' E 140°26'2015.7
2014-Aug-16 15:09N 35°20' E 140°41'1117.0
2014-Aug-16 14:32N 35°29' E 140°47'1918.0
2014-Aug-16 13:29N 35°46' E 140°58'1819.2
2014-Aug-16 12:33N 36°04' E 141°00'  

Dump ship's entire track history